Portada
METAR-TAF:

METAR-TAF

Aeroports :

Calgary, Alberta, Canadà

latitud: 51-07N, longitud: 114-01W, altitud: 1077 m

Observació

L'informe es va fer fa 1 hora i 9 minuts, a les 03:00 UTC
Vent 5 kt del Sud/Sud-Oest
Temperatura -5°C
Humitat 79%
Pressió 1017 hPa
Visibilitat: 24.1 km
Escasses núvols a una alçada de 22000 ft

METAR: CYYC 210300Z 21005KT 15SM FEW220 M05/M08 A3002 RMK CI2 SLP234

Hora: 21:09 (04:09 UTC)

Pronòstic

L'informe es va fer fa 1 hora i 31 minuts, a les 02:38 UTC
Pronòstic vàlid del 21 a les 03 UTC al 21 a les 24 UTC
Vent 6 kt del Sud
Visibilitat: 10 km
Cel clar
Evolucionant progressivament
l' 21 a les 07 UTC al 21 a les 09 UTC
Vent 5 kt del Oest

TAF: CYYC 210238Z 2103/2124 18006KT P6SM SKC BECMG 2107/2109 27005KT RMK NXT FCST BY 210600Z

Observacions i pronòstics meteorològics de més de 4000 aeroports (METAR i TAF).

Les estacions disponibles són els punts grocs i vermells al mapa.

Posi el ratolí al punt desitjat per veure el nom de l'estació.

Feu clic per veure les observacions i els pronòstics meteorològics.

Per canviar el mapa: feu clic els botons verds amb una creu de color negre per apropar; al botó verd amb un guió per allunyar la imatge; o en les fletxes verdes per a mapes adjacents.


METAR-TAF: